sensor_id;sensor_type;location;lat;lon;timestamp;temperature;humidity
5415;DHT22;2730;51.512;7.504;2022-07-21T05:00:57;19.20;99.90
5415;DHT22;2730;51.512;7.504;2022-07-21T05:03:23;19.30;99.90
5415;DHT22;2730;51.512;7.504;2022-07-21T05:05:50;19.50;99.90
5415;DHT22;2730;51.512;7.504;2022-07-21T05:08:17;19.70;99.90
5415;DHT22;2730;51.512;7.504;2022-07-21T05:10:44;19.80;99.90
5415;DHT22;2730;51.512;7.504;2022-07-21T05:13:11;19.80;99.90
5415;DHT22;2730;51.512;7.504;2022-07-21T05:15:38;19.80;99.90
5415;DHT22;2730;51.512;7.504;2022-07-21T05:18:08;19.90;99.90
5415;DHT22;2730;51.512;7.504;2022-07-21T05:20:35;20.00;99.90
5415;DHT22;2730;51.512;7.504;2022-07-21T05:23:02;20.10;99.90
5415;DHT22;2730;51.512;7.504;2022-07-21T05:25:29;20.20;99.90
5415;DHT22;2730;51.512;7.504;2022-07-21T05:27:57;20.50;99.90
5415;DHT22;2730;51.512;7.504;2022-07-21T05:30:24;20.60;99.90
5415;DHT22;2730;51.512;7.504;2022-07-21T05:32:51;20.80;99.90
5415;DHT22;2730;51.512;7.504;2022-07-21T05:35:19;20.80;99.90
5415;DHT22;2730;51.512;7.504;2022-07-21T05:37:46;21.00;99.90
5415;DHT22;2730;51.512;7.504;2022-07-21T05:40:13;21.10;99.90
5415;DHT22;2730;51.512;7.504;2022-07-21T05:42:40;21.20;99.90
5415;DHT22;2730;51.512;7.504;2022-07-21T05:45:08;21.40;99.90
5415;DHT22;2730;51.512;7.504;2022-07-21T05:47:35;21.30;99.90
5415;DHT22;2730;51.512;7.504;2022-07-21T05:50:03;21.30;99.90
5415;DHT22;2730;51.512;7.504;2022-07-21T05:52:31;21.30;99.90
5415;DHT22;2730;51.512;7.504;2022-07-21T05:54:58;21.30;99.90
5415;DHT22;2730;51.512;7.504;2022-07-21T05:57:25;21.30;99.90
5415;DHT22;2730;51.512;7.504;2022-07-21T05:59:51;21.40;99.90
5415;DHT22;2730;51.512;7.504;2022-07-21T06:02:18;21.50;99.90
5415;DHT22;2730;51.512;7.504;2022-07-21T06:04:45;21.40;99.90
5415;DHT22;2730;51.512;7.504;2022-07-21T06:07:12;21.30;99.90
5415;DHT22;2730;51.512;7.504;2022-07-21T06:09:40;21.20;99.90
5415;DHT22;2730;51.512;7.504;2022-07-21T06:12:07;21.30;99.90
5415;DHT22;2730;51.512;7.504;2022-07-21T06:14:35;21.30;99.90
5415;DHT22;2730;51.512;7.504;2022-07-21T06:17:02;21.20;99.90
5415;DHT22;2730;51.512;7.504;2022-07-21T06:19:28;21.10;99.90
5415;DHT22;2730;51.512;7.504;2022-07-21T06:21:56;21.10;99.90
5415;DHT22;2730;51.512;7.504;2022-07-21T06:24:22;21.10;99.90
5415;DHT22;2730;51.512;7.504;2022-07-21T06:26:51;21.10;99.90
5415;DHT22;2730;51.512;7.504;2022-07-21T06:29:20;21.10;99.90
5415;DHT22;2730;51.512;7.504;2022-07-21T06:31:47;21.00;99.90
5415;DHT22;2730;51.512;7.504;2022-07-21T06:34:14;21.20;99.90
5415;DHT22;2730;51.512;7.504;2022-07-21T06:36:41;21.30;99.90
5415;DHT22;2730;51.512;7.504;2022-07-21T06:39:08;21.50;99.90
5415;DHT22;2730;51.512;7.504;2022-07-21T06:41:37;21.60;99.90
5415;DHT22;2730;51.512;7.504;2022-07-21T06:44:06;21.50;99.90
5415;DHT22;2730;51.512;7.504;2022-07-21T06:46:33;21.40;99.90
5415;DHT22;2730;51.512;7.504;2022-07-21T06:49:00;21.30;99.90
5415;DHT22;2730;51.512;7.504;2022-07-21T06:51:27;21.30;99.90
5415;DHT22;2730;51.512;7.504;2022-07-21T06:53:54;21.30;99.90
5415;DHT22;2730;51.512;7.504;2022-07-21T06:56:21;21.30;99.90
5415;DHT22;2730;51.512;7.504;2022-07-21T06:58:48;21.50;99.90
5415;DHT22;2730;51.512;7.504;2022-07-21T07:01:16;21.70;99.90
5415;DHT22;2730;51.512;7.504;2022-07-21T07:03:44;21.90;99.90
5415;DHT22;2730;51.512;7.504;2022-07-21T07:06:11;21.90;99.90
5415;DHT22;2730;51.512;7.504;2022-07-21T07:08:38;21.90;99.90
5415;DHT22;2730;51.512;7.504;2022-07-21T07:11:06;21.80;99.90
5415;DHT22;2730;51.512;7.504;2022-07-21T07:13:33;21.90;99.90
5415;DHT22;2730;51.512;7.504;2022-07-21T07:15:59;22.10;99.90
5415;DHT22;2730;51.512;7.504;2022-07-21T07:18:28;22.00;99.90
5415;DHT22;2730;51.512;7.504;2022-07-21T07:20:55;22.00;99.90
5415;DHT22;2730;51.512;7.504;2022-07-21T07:23:21;22.00;99.90
5415;DHT22;2730;51.512;7.504;2022-07-21T07:25:48;22.10;99.90
5415;DHT22;2730;51.512;7.504;2022-07-21T07:28:16;22.30;99.90
5415;DHT22;2730;51.512;7.504;2022-07-21T07:30:43;22.20;99.90
5415;DHT22;2730;51.512;7.504;2022-07-21T07:33:09;22.30;99.90
5415;DHT22;2730;51.512;7.504;2022-07-21T07:35:38;22.40;99.90
5415;DHT22;2730;51.512;7.504;2022-07-21T07:38:04;22.50;99.90
5415;DHT22;2730;51.512;7.504;2022-07-21T07:40:31;22.60;99.90
5415;DHT22;2730;51.512;7.504;2022-07-21T07:42:58;22.50;99.90
5415;DHT22;2730;51.512;7.504;2022-07-21T07:45:26;22.30;99.90
5415;DHT22;2730;51.512;7.504;2022-07-21T07:47:52;22.00;99.90
5415;DHT22;2730;51.512;7.504;2022-07-21T07:50:19;21.90;99.90
5415;DHT22;2730;51.512;7.504;2022-07-21T07:52:47;22.00;99.90
5415;DHT22;2730;51.512;7.504;2022-07-21T07:55:14;21.90;99.90
5415;DHT22;2730;51.512;7.504;2022-07-21T07:57:42;21.80;99.90
5415;DHT22;2730;51.512;7.504;2022-07-21T08:00:11;21.90;99.90
5415;DHT22;2730;51.512;7.504;2022-07-21T08:02:39;21.90;99.90
5415;DHT22;2730;51.512;7.504;2022-07-21T08:05:06;21.80;99.90
5415;DHT22;2730;51.512;7.504;2022-07-21T08:07:34;21.80;99.90
5415;DHT22;2730;51.512;7.504;2022-07-21T08:10:03;22.00;99.90
5415;DHT22;2730;51.512;7.504;2022-07-21T08:12:30;22.00;99.90
5415;DHT22;2730;51.512;7.504;2022-07-21T08:14:57;22.10;99.90
5415;DHT22;2730;51.512;7.504;2022-07-21T08:17:23;22.30;99.90
5415;DHT22;2730;51.512;7.504;2022-07-21T08:19:50;22.30;99.90
5415;DHT22;2730;51.512;7.504;2022-07-21T08:22:17;22.40;99.90
5415;DHT22;2730;51.512;7.504;2022-07-21T08:24:44;22.30;99.90
5415;DHT22;2730;51.512;7.504;2022-07-21T08:27:12;22.40;99.90
5415;DHT22;2730;51.512;7.504;2022-07-21T08:29:39;22.40;99.90
5415;DHT22;2730;51.512;7.504;2022-07-21T08:32:06;22.40;99.90
5415;DHT22;2730;51.512;7.504;2022-07-21T08:34:33;22.60;99.90
5415;DHT22;2730;51.512;7.504;2022-07-21T08:37:00;22.70;99.90
5415;DHT22;2730;51.512;7.504;2022-07-21T08:39:27;22.90;99.90
5415;DHT22;2730;51.512;7.504;2022-07-21T08:41:54;23.10;99.90
5415;DHT22;2730;51.512;7.504;2022-07-21T08:44:22;23.10;99.90
5415;DHT22;2730;51.512;7.504;2022-07-21T08:46:51;23.20;99.90
5415;DHT22;2730;51.512;7.504;2022-07-21T08:49:20;23.20;99.90
5415;DHT22;2730;51.512;7.504;2022-07-21T08:51:47;23.20;99.90
5415;DHT22;2730;51.512;7.504;2022-07-21T08:54:14;23.50;99.90
5415;DHT22;2730;51.512;7.504;2022-07-21T08:56:41;23.90;99.90
5415;DHT22;2730;51.512;7.504;2022-07-21T08:59:08;24.30;99.90
5415;DHT22;2730;51.512;7.504;2022-07-21T09:01:36;24.40;99.90
5415;DHT22;2730;51.512;7.504;2022-07-21T09:04:19;24.60;99.90
5415;DHT22;2730;51.512;7.504;2022-07-21T09:06:52;24.70;99.90
5415;DHT22;2730;51.512;7.504;2022-07-21T09:09:19;25.10;99.90
5415;DHT22;2730;51.512;7.504;2022-07-21T09:11:47;25.10;99.90
5415;DHT22;2730;51.512;7.504;2022-07-21T09:14:16;25.00;99.90
5415;DHT22;2730;51.512;7.504;2022-07-21T09:16:47;24.60;99.90
5415;DHT22;2730;51.512;7.504;2022-07-21T09:19:20;24.80;99.90
5415;DHT22;2730;51.512;7.504;2022-07-21T09:21:48;24.90;99.90
5415;DHT22;2730;51.512;7.504;2022-07-21T09:24:18;24.80;99.90
5415;DHT22;2730;51.512;7.504;2022-07-21T09:27:09;25.00;99.90
5415;DHT22;2730;51.512;7.504;2022-07-21T09:29:39;25.40;99.90
5415;DHT22;2730;51.512;7.504;2022-07-21T09:32:22;26.00;99.90
5415;DHT22;2730;51.512;7.504;2022-07-21T09:34:51;26.50;99.90
5415;DHT22;2730;51.512;7.504;2022-07-21T09:37:18;26.60;99.90
5415;DHT22;2730;51.512;7.504;2022-07-21T09:39:48;26.00;99.90
5415;DHT22;2730;51.512;7.504;2022-07-21T09:42:20;25.40;99.90
5415;DHT22;2730;51.512;7.504;2022-07-21T09:44:50;25.10;99.90
5415;DHT22;2730;51.512;7.504;2022-07-21T09:47:19;24.80;99.90
5415;DHT22;2730;51.512;7.504;2022-07-21T09:49:46;24.60;99.90
5415;DHT22;2730;51.512;7.504;2022-07-21T09:52:22;24.70;99.90
5415;DHT22;2730;51.512;7.504;2022-07-21T09:54:49;24.20;99.90
5415;DHT22;2730;51.512;7.504;2022-07-21T09:57:17;24.20;99.90
5415;DHT22;2730;51.512;7.504;2022-07-21T09:59:44;24.00;99.90
5415;DHT22;2730;51.512;7.504;2022-07-21T10:02:16;24.10;99.90
5415;DHT22;2730;51.512;7.504;2022-07-21T10:04:46;24.20;99.90
5415;DHT22;2730;51.512;7.504;2022-07-21T10:07:14;24.60;99.90
5415;DHT22;2730;51.512;7.504;2022-07-21T10:09:43;25.10;99.90
5415;DHT22;2730;51.512;7.504;2022-07-21T10:12:10;25.30;99.90
5415;DHT22;2730;51.512;7.504;2022-07-21T10:14:37;25.10;99.90
5415;DHT22;2730;51.512;7.504;2022-07-21T10:17:04;25.00;99.90
5415;DHT22;2730;51.512;7.504;2022-07-21T10:19:37;24.90;99.90
5415;DHT22;2730;51.512;7.504;2022-07-21T10:22:12;24.70;99.90
5415;DHT22;2730;51.512;7.504;2022-07-21T10:24:42;24.50;99.90
5415;DHT22;2730;51.512;7.504;2022-07-21T10:27:11;24.30;99.90
5415;DHT22;2730;51.512;7.504;2022-07-21T10:29:58;24.00;99.90
5415;DHT22;2730;51.512;7.504;2022-07-21T10:32:28;23.80;99.90
5415;DHT22;2730;51.512;7.504;2022-07-21T10:34:56;23.70;99.90
5415;DHT22;2730;51.512;7.504;2022-07-21T10:37:44;23.60;99.90
5415;DHT22;2730;51.512;7.504;2022-07-21T10:40:38;23.60;99.90
5415;DHT22;2730;51.512;7.504;2022-07-21T10:43:36;24.00;99.90
5415;DHT22;2730;51.512;7.504;2022-07-21T10:46:37;24.20;99.90
5415;DHT22;2730;51.512;7.504;2022-07-21T10:49:06;24.50;99.90
5415;DHT22;2730;51.512;7.504;2022-07-21T10:51:35;24.90;99.90
5415;DHT22;2730;51.512;7.504;2022-07-21T10:54:18;25.10;99.90
5415;DHT22;2730;51.512;7.504;2022-07-21T10:56:45;25.00;99.90
5415;DHT22;2730;51.512;7.504;2022-07-21T10:59:12;25.10;99.90
5415;DHT22;2730;51.512;7.504;2022-07-21T11:01:39;25.20;99.90
5415;DHT22;2730;51.512;7.504;2022-07-21T11:04:08;25.10;99.90
5415;DHT22;2730;51.512;7.504;2022-07-21T11:06:36;25.00;99.90
5415;DHT22;2730;51.512;7.504;2022-07-21T11:09:12;24.90;99.90
5415;DHT22;2730;51.512;7.504;2022-07-21T11:11:57;24.90;99.90
5415;DHT22;2730;51.512;7.504;2022-07-21T11:14:40;24.80;99.90
5415;DHT22;2730;51.512;7.504;2022-07-21T11:17:09;24.60;99.90
5415;DHT22;2730;51.512;7.504;2022-07-21T11:19:39;24.50;99.90
5415;DHT22;2730;51.512;7.504;2022-07-21T11:22:11;24.50;99.90
5415;DHT22;2730;51.512;7.504;2022-07-21T11:24:39;24.50;99.90
5415;DHT22;2730;51.512;7.504;2022-07-21T11:27:09;24.60;99.90
5415;DHT22;2730;51.512;7.504;2022-07-21T11:29:39;24.60;99.90
5415;DHT22;2730;51.512;7.504;2022-07-21T11:32:07;24.70;99.90
5415;DHT22;2730;51.512;7.504;2022-07-21T11:34:44;24.80;99.90
5415;DHT22;2730;51.512;7.504;2022-07-21T11:37:13;24.80;99.90
5415;DHT22;2730;51.512;7.504;2022-07-21T11:39:40;24.40;99.90
5415;DHT22;2730;51.512;7.504;2022-07-21T11:42:11;24.10;99.90
5415;DHT22;2730;51.512;7.504;2022-07-21T11:44:39;24.00;99.90
5415;DHT22;2730;51.512;7.504;2022-07-21T11:47:09;23.90;99.90
5415;DHT22;2730;51.512;7.504;2022-07-21T11:49:37;23.80;99.90
5415;DHT22;2730;51.512;7.504;2022-07-21T11:52:06;23.80;99.90
5415;DHT22;2730;51.512;7.504;2022-07-21T11:54:35;23.70;99.90
5415;DHT22;2730;51.512;7.504;2022-07-21T11:57:04;23.60;99.90
5415;DHT22;2730;51.512;7.504;2022-07-21T11:59:34;23.50;99.90
5415;DHT22;2730;51.512;7.504;2022-07-21T12:02:04;23.40;99.90
5415;DHT22;2730;51.512;7.504;2022-07-21T12:04:35;23.30;99.90
5415;DHT22;2730;51.512;7.504;2022-07-21T12:07:04;23.20;99.90
5415;DHT22;2730;51.512;7.504;2022-07-21T12:09:32;23.10;99.90
5415;DHT22;2730;51.512;7.504;2022-07-21T12:11:59;22.80;99.90
5415;DHT22;2730;51.512;7.504;2022-07-21T12:14:46;22.70;99.90
5415;DHT22;2730;51.512;7.504;2022-07-21T12:17:14;22.60;99.90
5415;DHT22;2730;51.512;7.504;2022-07-21T12:19:42;22.40;99.90
5415;DHT22;2730;51.512;7.504;2022-07-21T12:22:09;22.40;99.90
5415;DHT22;2730;51.512;7.504;2022-07-21T12:24:51;22.50;99.90
5415;DHT22;2730;51.512;7.504;2022-07-21T12:27:18;22.60;99.90
5415;DHT22;2730;51.512;7.504;2022-07-21T12:29:47;22.50;99.90
5415;DHT22;2730;51.512;7.504;2022-07-21T12:32:38;22.40;99.90
5415;DHT22;2730;51.512;7.504;2022-07-21T12:35:01;22.40;99.90
5415;DHT22;2730;51.512;7.504;2022-07-21T12:37:53;22.40;99.90
5415;DHT22;2730;51.512;7.504;2022-07-21T12:40:20;22.30;99.90
5415;DHT22;2730;51.512;7.504;2022-07-21T12:42:48;22.20;99.90
5415;DHT22;2730;51.512;7.504;2022-07-21T12:45:17;22.20;99.90
5415;DHT22;2730;51.512;7.504;2022-07-21T12:48:04;22.30;99.90
5415;DHT22;2730;51.512;7.504;2022-07-21T12:50:31;22.10;99.90
5415;DHT22;2730;51.512;7.504;2022-07-21T12:52:59;21.80;99.90
5415;DHT22;2730;51.512;7.504;2022-07-21T12:55:26;21.70;99.90
5415;DHT22;2730;51.512;7.504;2022-07-21T12:57:52;21.60;99.90
5415;DHT22;2730;51.512;7.504;2022-07-21T13:00:21;21.40;99.90
5415;DHT22;2730;51.512;7.504;2022-07-21T13:02:49;21.40;99.90
5415;DHT22;2730;51.512;7.504;2022-07-21T13:05:17;21.50;99.90
5415;DHT22;2730;51.512;7.504;2022-07-21T13:07:44;21.70;99.90
5415;DHT22;2730;51.512;7.504;2022-07-21T13:10:11;21.80;99.90
5415;DHT22;2730;51.512;7.504;2022-07-21T13:12:38;21.70;99.90
5415;DHT22;2730;51.512;7.504;2022-07-21T13:15:06;21.90;99.90
5415;DHT22;2730;51.512;7.504;2022-07-21T13:17:34;21.90;99.90
5415;DHT22;2730;51.512;7.504;2022-07-21T13:20:01;21.80;99.90
5415;DHT22;2730;51.512;7.504;2022-07-21T13:22:28;21.70;99.90
5415;DHT22;2730;51.512;7.504;2022-07-21T13:24:55;21.70;99.90
5415;DHT22;2730;51.512;7.504;2022-07-21T13:27:22;21.70;99.90
5415;DHT22;2730;51.512;7.504;2022-07-21T13:29:49;21.70;99.90
5415;DHT22;2730;51.512;7.504;2022-07-21T13:32:16;21.60;99.90
5415;DHT22;2730;51.512;7.504;2022-07-21T13:34:44;21.60;99.90
5415;DHT22;2730;51.512;7.504;2022-07-21T13:37:11;21.60;99.90
5415;DHT22;2730;51.512;7.504;2022-07-21T13:39:38;21.50;99.90
5415;DHT22;2730;51.512;7.504;2022-07-21T13:42:06;21.40;99.90
5415;DHT22;2730;51.512;7.504;2022-07-21T13:44:33;21.40;99.90
5415;DHT22;2730;51.512;7.504;2022-07-21T13:46:59;21.50;99.90
5415;DHT22;2730;51.512;7.504;2022-07-21T13:49:26;21.60;99.90
5415;DHT22;2730;51.512;7.504;2022-07-21T13:51:55;21.40;99.90
5415;DHT22;2730;51.512;7.504;2022-07-21T13:54:21;21.30;99.90
5415;DHT22;2730;51.512;7.504;2022-07-21T13:56:49;21.20;99.90
5415;DHT22;2730;51.512;7.504;2022-07-21T13:59:16;21.10;99.90
5415;DHT22;2730;51.512;7.504;2022-07-21T14:01:43;21.10;99.90
5415;DHT22;2730;51.512;7.504;2022-07-21T14:04:10;21.10;99.90
5415;DHT22;2730;51.512;7.504;2022-07-21T14:06:37;21.10;99.90
5415;DHT22;2730;51.512;7.504;2022-07-21T14:09:05;21.10;99.90
5415;DHT22;2730;51.512;7.504;2022-07-21T14:11:32;21.00;99.90
5415;DHT22;2730;51.512;7.504;2022-07-21T14:14:01;20.90;99.90
5415;DHT22;2730;51.512;7.504;2022-07-21T14:16:27;20.70;99.90
5415;DHT22;2730;51.512;7.504;2022-07-21T14:18:54;20.60;99.90
5415;DHT22;2730;51.512;7.504;2022-07-21T14:21:21;20.50;99.90
5415;DHT22;2730;51.512;7.504;2022-07-21T14:23:48;20.50;99.90
5415;DHT22;2730;51.512;7.504;2022-07-21T14:26:37;20.40;99.90
5415;DHT22;2730;51.512;7.504;2022-07-21T14:29:04;20.40;99.90
5415;DHT22;2730;51.512;7.504;2022-07-21T14:31:31;20.40;99.90
5415;DHT22;2730;51.512;7.504;2022-07-21T14:33:59;20.50;99.90
5415;DHT22;2730;51.512;7.504;2022-07-21T14:36:25;20.50;99.90
5415;DHT22;2730;51.512;7.504;2022-07-21T14:38:53;20.50;99.90
5415;DHT22;2730;51.512;7.504;2022-07-21T14:41:20;20.50;99.90
5415;DHT22;2730;51.512;7.504;2022-07-21T14:43:48;20.50;99.90
5415;DHT22;2730;51.512;7.504;2022-07-21T14:46:15;20.60;99.90
5415;DHT22;2730;51.512;7.504;2022-07-21T14:48:42;20.60;99.90
5415;DHT22;2730;51.512;7.504;2022-07-21T14:51:09;20.40;99.90
5415;DHT22;2730;51.512;7.504;2022-07-21T14:53:36;20.40;99.90
5415;DHT22;2730;51.512;7.504;2022-07-21T14:56:03;20.30;99.90
5415;DHT22;2730;51.512;7.504;2022-07-21T14:58:30;20.20;99.90
5415;DHT22;2730;51.512;7.504;2022-07-21T15:00:58;20.20;99.90
5415;DHT22;2730;51.512;7.504;2022-07-21T15:03:25;20.30;99.90
5415;DHT22;2730;51.512;7.504;2022-07-21T15:05:52;20.20;99.90
5415;DHT22;2730;51.512;7.504;2022-07-21T15:08:19;20.10;99.90
5415;DHT22;2730;51.512;7.504;2022-07-21T15:10:46;20.20;99.90
5415;DHT22;2730;51.512;7.504;2022-07-21T15:13:14;20.30;99.90
5415;DHT22;2730;51.512;7.504;2022-07-21T15:15:41;20.30;99.90
5415;DHT22;2730;51.512;7.504;2022-07-21T15:18:10;20.40;99.90
5415;DHT22;2730;51.512;7.504;2022-07-21T15:20:38;20.50;99.90
5415;DHT22;2730;51.512;7.504;2022-07-21T15:23:05;20.40;99.90
5415;DHT22;2730;51.512;7.504;2022-07-21T15:25:32;20.40;99.90
5415;DHT22;2730;51.512;7.504;2022-07-21T15:27:59;20.30;99.90
5415;DHT22;2730;51.512;7.504;2022-07-21T15:30:26;20.30;99.90
5415;DHT22;2730;51.512;7.504;2022-07-21T15:32:53;20.00;99.90
5415;DHT22;2730;51.512;7.504;2022-07-21T15:35:21;19.90;99.90
5415;DHT22;2730;51.512;7.504;2022-07-21T15:37:48;19.90;99.90
5415;DHT22;2730;51.512;7.504;2022-07-21T15:40:15;19.70;99.90
5415;DHT22;2730;51.512;7.504;2022-07-21T15:42:42;19.70;99.90
5415;DHT22;2730;51.512;7.504;2022-07-21T15:45:10;19.80;99.90
5415;DHT22;2730;51.512;7.504;2022-07-21T15:47:37;20.00;99.90
5415;DHT22;2730;51.512;7.504;2022-07-21T15:50:05;20.10;99.90
5415;DHT22;2730;51.512;7.504;2022-07-21T15:52:36;20.20;99.90
5415;DHT22;2730;51.512;7.504;2022-07-21T15:55:03;20.20;99.90
5415;DHT22;2730;51.512;7.504;2022-07-21T15:57:31;20.30;99.90
5415;DHT22;2730;51.512;7.504;2022-07-21T15:59:58;20.40;99.90
5415;DHT22;2730;51.512;7.504;2022-07-21T16:02:25;20.50;99.90
5415;DHT22;2730;51.512;7.504;2022-07-21T16:04:53;20.60;99.90
5415;DHT22;2730;51.512;7.504;2022-07-21T16:07:20;20.60;99.90
5415;DHT22;2730;51.512;7.504;2022-07-21T16:09:48;20.50;99.90
5415;DHT22;2730;51.512;7.504;2022-07-21T16:12:15;20.50;99.90
5415;DHT22;2730;51.512;7.504;2022-07-21T16:14:42;20.50;99.90
5415;DHT22;2730;51.512;7.504;2022-07-21T16:17:09;20.50;99.90
5415;DHT22;2730;51.512;7.504;2022-07-21T16:19:37;20.60;99.90
5415;DHT22;2730;51.512;7.504;2022-07-21T16:22:04;20.50;99.90
5415;DHT22;2730;51.512;7.504;2022-07-21T16:24:31;20.30;99.90
5415;DHT22;2730;51.512;7.504;2022-07-21T16:27:00;20.30;99.90
5415;DHT22;2730;51.512;7.504;2022-07-21T16:29:26;20.10;99.90
5415;DHT22;2730;51.512;7.504;2022-07-21T16:31:53;20.00;99.90
5415;DHT22;2730;51.512;7.504;2022-07-21T16:34:24;19.80;99.90
5415;DHT22;2730;51.512;7.504;2022-07-21T16:36:51;19.70;99.90
5415;DHT22;2730;51.512;7.504;2022-07-21T16:39:18;19.70;99.90
5415;DHT22;2730;51.512;7.504;2022-07-21T16:41:45;19.70;99.90
5415;DHT22;2730;51.512;7.504;2022-07-21T16:44:14;19.50;99.90
5415;DHT22;2730;51.512;7.504;2022-07-21T16:46:42;19.40;99.90
5415;DHT22;2730;51.512;7.504;2022-07-21T16:49:08;19.40;99.90
5415;DHT22;2730;51.512;7.504;2022-07-21T16:51:35;19.40;99.90
5415;DHT22;2730;51.512;7.504;2022-07-21T16:54:02;19.50;99.90
5415;DHT22;2730;51.512;7.504;2022-07-21T16:56:29;19.60;99.90
5415;DHT22;2730;51.512;7.504;2022-07-21T16:58:56;19.60;99.90
5415;DHT22;2730;51.512;7.504;2022-07-21T17:01:24;19.60;99.90
5415;DHT22;2730;51.512;7.504;2022-07-21T17:03:52;19.60;99.90
5415;DHT22;2730;51.512;7.504;2022-07-21T17:06:19;19.40;99.90
5415;DHT22;2730;51.512;7.504;2022-07-21T17:08:45;19.30;99.90
5415;DHT22;2730;51.512;7.504;2022-07-21T17:11:12;19.30;99.90
5415;DHT22;2730;51.512;7.504;2022-07-21T17:13:39;19.30;99.90
5415;DHT22;2730;51.512;7.504;2022-07-21T17:16:06;19.30;99.90
5415;DHT22;2730;51.512;7.504;2022-07-21T17:18:36;19.20;99.90
5415;DHT22;2730;51.512;7.504;2022-07-21T17:21:03;19.20;99.90
5415;DHT22;2730;51.512;7.504;2022-07-21T17:23:31;19.30;99.90
5415;DHT22;2730;51.512;7.504;2022-07-21T17:25:58;19.30;99.90
5415;DHT22;2730;51.512;7.504;2022-07-21T17:28:25;19.30;99.90
5415;DHT22;2730;51.512;7.504;2022-07-21T17:30:52;19.40;99.90
5415;DHT22;2730;51.512;7.504;2022-07-21T17:33:19;19.40;99.90
5415;DHT22;2730;51.512;7.504;2022-07-21T17:35:47;19.40;99.90
5415;DHT22;2730;51.512;7.504;2022-07-21T17:38:14;19.40;99.90
5415;DHT22;2730;51.512;7.504;2022-07-21T17:40:42;19.40;99.90
5415;DHT22;2730;51.512;7.504;2022-07-21T17:43:09;19.40;99.90
5415;DHT22;2730;51.512;7.504;2022-07-21T17:45:35;19.30;99.90
5415;DHT22;2730;51.512;7.504;2022-07-21T17:48:03;19.30;99.90
5415;DHT22;2730;51.512;7.504;2022-07-21T17:50:29;19.10;99.90
5415;DHT22;2730;51.512;7.504;2022-07-21T17:52:58;18.90;99.90
5415;DHT22;2730;51.512;7.504;2022-07-21T17:55:24;18.80;99.90
5415;DHT22;2730;51.512;7.504;2022-07-21T17:57:51;18.80;99.90
5415;DHT22;2730;51.512;7.504;2022-07-21T18:00:35;18.80;99.90
5415;DHT22;2730;51.512;7.504;2022-07-21T18:03:02;18.80;99.90
5415;DHT22;2730;51.512;7.504;2022-07-21T18:05:29;18.80;99.90
5415;DHT22;2730;51.512;7.504;2022-07-21T18:07:57;18.90;99.90
5415;DHT22;2730;51.512;7.504;2022-07-21T18:10:24;18.90;99.90
5415;DHT22;2730;51.512;7.504;2022-07-21T18:12:51;18.80;99.90
5415;DHT22;2730;51.512;7.504;2022-07-21T18:15:18;18.80;99.90
5415;DHT22;2730;51.512;7.504;2022-07-21T18:17:45;18.70;99.90
5415;DHT22;2730;51.512;7.504;2022-07-21T18:20:12;18.60;99.90
5415;DHT22;2730;51.512;7.504;2022-07-21T18:22:39;18.60;99.90
5415;DHT22;2730;51.512;7.504;2022-07-21T18:25:08;18.50;99.90
5415;DHT22;2730;51.512;7.504;2022-07-21T18:27:35;18.50;99.90
5415;DHT22;2730;51.512;7.504;2022-07-21T18:30:03;18.40;99.90
5415;DHT22;2730;51.512;7.504;2022-07-21T18:32:30;18.40;99.90
5415;DHT22;2730;51.512;7.504;2022-07-21T18:34:56;18.40;99.90
5415;DHT22;2730;51.512;7.504;2022-07-21T18:37:23;18.40;99.90
5415;DHT22;2730;51.512;7.504;2022-07-21T18:39:50;18.40;99.90
5415;DHT22;2730;51.512;7.504;2022-07-21T18:42:18;18.40;99.90
5415;DHT22;2730;51.512;7.504;2022-07-21T18:44:45;18.30;99.90
5415;DHT22;2730;51.512;7.504;2022-07-21T18:47:13;18.30;99.90
5415;DHT22;2730;51.512;7.504;2022-07-21T18:49:40;18.30;99.90
5415;DHT22;2730;51.512;7.504;2022-07-21T18:52:07;18.30;99.90
5415;DHT22;2730;51.512;7.504;2022-07-21T18:54:34;18.30;99.90
5415;DHT22;2730;51.512;7.504;2022-07-21T18:57:00;18.30;99.90
5415;DHT22;2730;51.512;7.504;2022-07-21T18:59:29;18.30;99.90
5415;DHT22;2730;51.512;7.504;2022-07-21T19:01:55;18.30;99.90
5415;DHT22;2730;51.512;7.504;2022-07-21T19:04:22;18.30;99.90
5415;DHT22;2730;51.512;7.504;2022-07-21T19:06:49;18.30;99.90
5415;DHT22;2730;51.512;7.504;2022-07-21T19:09:16;18.30;99.90
5415;DHT22;2730;51.512;7.504;2022-07-21T19:11:43;18.20;99.90
5415;DHT22;2730;51.512;7.504;2022-07-21T19:14:10;18.20;99.90
5415;DHT22;2730;51.512;7.504;2022-07-21T19:16:38;18.20;99.90
5415;DHT22;2730;51.512;7.504;2022-07-21T19:19:05;18.20;99.90
5415;DHT22;2730;51.512;7.504;2022-07-21T19:21:32;18.20;99.90
5415;DHT22;2730;51.512;7.504;2022-07-21T19:24:00;18.20;99.90
5415;DHT22;2730;51.512;7.504;2022-07-21T19:26:27;18.20;99.90
5415;DHT22;2730;51.512;7.504;2022-07-21T19:28:54;18.20;99.90
5415;DHT22;2730;51.512;7.504;2022-07-21T19:31:21;18.30;99.90
5415;DHT22;2730;51.512;7.504;2022-07-21T19:33:50;18.30;99.90
5415;DHT22;2730;51.512;7.504;2022-07-21T19:36:17;18.30;99.90
5415;DHT22;2730;51.512;7.504;2022-07-21T19:38:44;18.30;99.90
5415;DHT22;2730;51.512;7.504;2022-07-21T19:41:11;18.20;99.90
5415;DHT22;2730;51.512;7.504;2022-07-21T19:43:38;18.20;99.90
5415;DHT22;2730;51.512;7.504;2022-07-21T19:46:05;18.10;99.90
5415;DHT22;2730;51.512;7.504;2022-07-21T19:48:32;18.20;99.90
5415;DHT22;2730;51.512;7.504;2022-07-21T19:51:00;18.20;99.90
5415;DHT22;2730;51.512;7.504;2022-07-21T19:53:27;18.20;99.90
5415;DHT22;2730;51.512;7.504;2022-07-21T19:55:54;18.20;99.90
5415;DHT22;2730;51.512;7.504;2022-07-21T19:58:21;18.20;99.90
5415;DHT22;2730;51.512;7.504;2022-07-21T20:00:47;18.30;99.90
5415;DHT22;2730;51.512;7.504;2022-07-21T20:03:14;18.30;99.90
5415;DHT22;2730;51.512;7.504;2022-07-21T20:05:41;18.20;99.90
5415;DHT22;2730;51.512;7.504;2022-07-21T20:08:09;18.20;99.90
5415;DHT22;2730;51.512;7.504;2022-07-21T20:10:36;18.20;99.90
5415;DHT22;2730;51.512;7.504;2022-07-21T20:13:03;18.20;99.90
5415;DHT22;2730;51.512;7.504;2022-07-21T20:15:30;18.10;99.90
5415;DHT22;2730;51.512;7.504;2022-07-21T20:17:57;18.10;99.90
5415;DHT22;2730;51.512;7.504;2022-07-21T20:20:25;18.10;99.90
5415;DHT22;2730;51.512;7.504;2022-07-21T20:22:52;18.10;99.90
5415;DHT22;2730;51.512;7.504;2022-07-21T20:25:20;18.00;99.90
5415;DHT22;2730;51.512;7.504;2022-07-21T20:27:47;18.00;99.90
5415;DHT22;2730;51.512;7.504;2022-07-21T20:30:15;18.00;99.90
5415;DHT22;2730;51.512;7.504;2022-07-21T20:32:43;18.00;99.90
5415;DHT22;2730;51.512;7.504;2022-07-21T20:35:13;18.00;99.90
5415;DHT22;2730;51.512;7.504;2022-07-21T20:37:39;17.90;99.90
5415;DHT22;2730;51.512;7.504;2022-07-21T20:40:08;18.00;99.90
5415;DHT22;2730;51.512;7.504;2022-07-21T20:42:36;17.90;99.90
5415;DHT22;2730;51.512;7.504;2022-07-21T20:45:04;17.90;99.90
5415;DHT22;2730;51.512;7.504;2022-07-21T20:47:31;17.80;99.90
5415;DHT22;2730;51.512;7.504;2022-07-21T20:49:58;17.90;99.90
5415;DHT22;2730;51.512;7.504;2022-07-21T20:52:25;17.90;99.90
5415;DHT22;2730;51.512;7.504;2022-07-21T20:54:52;17.90;99.90
5415;DHT22;2730;51.512;7.504;2022-07-21T20:57:18;17.90;99.90
5415;DHT22;2730;51.512;7.504;2022-07-21T20:59:47;17.90;99.90
5415;DHT22;2730;51.512;7.504;2022-07-21T21:02:14;17.90;99.90
5415;DHT22;2730;51.512;7.504;2022-07-21T21:04:41;17.90;99.90
5415;DHT22;2730;51.512;7.504;2022-07-21T21:07:08;17.80;99.90
5415;DHT22;2730;51.512;7.504;2022-07-21T21:09:35;17.80;99.90